createdAt,value
2022-09-07T00:02:47.889Z,39.88
2022-09-07T00:07:51.037Z,39.91
2022-09-07T00:12:54.089Z,40.03
2022-09-07T00:17:57.253Z,40.01
2022-09-07T00:23:00.319Z,40.08
2022-09-07T00:28:03.592Z,40.37
2022-09-07T00:33:06.639Z,40.33
2022-09-07T00:38:10.056Z,40.53
2022-09-07T00:43:31.699Z,40.71
2022-09-07T00:48:42.492Z,40.88
2022-09-07T00:53:55.643Z,41.05
2022-09-07T00:58:59.337Z,41.10
2022-09-07T01:04:03.602Z,41.13
2022-09-07T01:09:12.166Z,41.20
2022-09-07T01:14:15.999Z,41.32
2022-09-07T01:19:53.093Z,41.43
2022-09-07T01:25:22.275Z,41.67
2022-09-07T01:30:26.841Z,41.80
2022-09-07T01:35:45.112Z,42.00
2022-09-07T01:40:57.022Z,42.07
2022-09-07T01:46:03.644Z,42.19
2022-09-07T01:51:07.024Z,42.25
2022-09-07T01:56:27.538Z,42.31
2022-09-07T02:01:33.563Z,42.52
2022-09-07T02:06:51.055Z,42.56
2022-09-07T02:11:54.909Z,42.75
2022-09-07T02:17:11.144Z,42.78
2022-09-07T02:22:19.056Z,42.84
2022-09-07T02:27:34.118Z,42.87
2022-09-07T02:32:37.369Z,43.00
2022-09-07T02:37:42.748Z,43.10
2022-09-07T02:42:47.836Z,43.13
2022-09-07T02:48:34.627Z,43.22
2022-09-07T02:53:57.044Z,43.53
2022-09-07T02:59:11.619Z,43.59
2022-09-07T03:04:42.132Z,43.66
2022-09-07T03:09:50.399Z,43.94
2022-09-07T03:14:53.230Z,44.00
2022-09-07T03:19:56.076Z,44.18
2022-09-07T03:24:59.178Z,44.20
2022-09-07T03:30:02.220Z,44.17
2022-09-07T03:35:08.017Z,44.49
2022-09-07T03:40:13.731Z,44.54
2022-09-07T03:45:16.894Z,44.75
2022-09-07T03:50:19.893Z,44.91
2022-09-07T03:55:22.748Z,45.11
2022-09-07T04:00:26.205Z,45.24
2022-09-07T04:05:29.077Z,45.43
2022-09-07T04:10:32.435Z,45.29
2022-09-07T04:15:35.437Z,45.57
2022-09-07T04:20:38.312Z,45.56
2022-09-07T04:25:48.632Z,45.58
2022-09-07T04:30:51.500Z,45.74
2022-09-07T04:35:54.415Z,46.07
2022-09-07T04:41:00.713Z,46.14
2022-09-07T04:46:06.126Z,46.02
2022-09-07T04:51:10.921Z,46.48
2022-09-07T04:56:16.891Z,46.49
2022-09-07T05:01:23.387Z,46.78
2022-09-07T05:06:26.339Z,46.62
2022-09-07T05:11:30.186Z,46.80
2022-09-07T05:16:33.268Z,46.88
2022-09-07T05:21:36.214Z,46.98
2022-09-07T05:26:39.839Z,47.14
2022-09-07T05:31:42.773Z,47.10
2022-09-07T05:36:45.718Z,47.25
2022-09-07T05:41:48.617Z,47.16
2022-09-07T05:46:52.804Z,47.82
2022-09-07T05:51:55.823Z,47.67
2022-09-07T05:56:58.758Z,47.52
2022-09-07T06:02:01.985Z,47.29
2022-09-07T06:07:21.182Z,46.99
2022-09-07T06:12:25.423Z,47.72
2022-09-07T06:17:31.305Z,47.38
2022-09-07T06:22:38.061Z,47.91
2022-09-07T06:27:40.958Z,47.63
2022-09-07T06:32:44.432Z,46.30
2022-09-07T06:37:47.787Z,45.96
2022-09-07T06:42:50.924Z,46.20
2022-09-07T06:47:55.001Z,46.28
2022-09-07T06:58:21.137Z,45.58
2022-09-07T07:03:24.353Z,45.63
2022-09-07T07:08:27.277Z,45.86
2022-09-07T07:13:30.262Z,46.21
2022-09-07T07:18:34.321Z,46.44
2022-09-07T07:23:37.894Z,46.60
2022-09-07T07:29:04.595Z,46.67
2022-09-07T07:34:08.620Z,46.85
2022-09-07T07:44:34.661Z,46.96
2022-09-07T07:49:37.557Z,47.21
2022-09-07T07:54:40.523Z,47.22
2022-09-07T07:59:43.429Z,47.13
2022-09-07T08:04:46.332Z,47.07
2022-09-07T08:09:49.421Z,47.29
2022-09-07T08:14:54.185Z,47.28
2022-09-07T08:19:57.390Z,47.09
2022-09-07T08:25:00.633Z,47.70
2022-09-07T08:30:03.923Z,48.08
2022-09-07T08:35:08.181Z,47.53
2022-09-07T08:40:18.605Z,47.25
2022-09-07T08:45:29.026Z,47.32
2022-09-07T08:50:46.641Z,46.91
2022-09-07T08:55:55.076Z,46.85
2022-09-07T09:06:47.391Z,46.66
2022-09-07T09:12:02.584Z,46.43
2022-09-07T09:17:16.251Z,46.24
2022-09-07T09:22:21.880Z,46.03
2022-09-07T09:27:24.775Z,46.10
2022-09-07T09:32:39.959Z,45.97
2022-09-07T09:37:44.692Z,45.51
2022-09-07T09:42:48.073Z,45.34
2022-09-07T09:47:54.742Z,44.94
2022-09-07T09:52:58.737Z,44.77
2022-09-07T10:09:02.511Z,44.00
2022-09-07T10:14:05.738Z,43.72
2022-09-07T10:19:32.210Z,43.68
2022-09-07T10:24:39.751Z,43.60
2022-09-07T10:29:42.693Z,43.33
2022-09-07T10:35:30.059Z,42.92
2022-09-07T10:40:56.288Z,42.66
2022-09-07T10:46:56.412Z,42.35
2022-09-07T10:51:51.601Z,42.15
2022-09-07T10:57:13.755Z,41.69
2022-09-07T11:03:24.783Z,41.28
2022-09-07T11:09:15.106Z,41.32
2022-09-07T11:14:13.527Z,41.20
2022-09-07T11:19:38.174Z,41.13
2022-09-07T11:25:33.053Z,41.14
2022-09-07T11:30:44.183Z,41.05
2022-09-07T11:35:53.734Z,40.76
2022-09-07T11:41:02.889Z,40.70
2022-09-07T11:46:12.049Z,40.73
2022-09-07T11:51:35.364Z,40.65
2022-09-07T11:56:45.574Z,40.13
2022-09-07T12:02:17.516Z,40.04
2022-09-07T12:07:43.093Z,39.70
2022-09-07T12:13:04.284Z,39.39
2022-09-07T12:18:25.142Z,39.10
2022-09-07T12:23:31.137Z,38.79
2022-09-07T12:28:33.982Z,38.51
2022-09-07T12:33:38.976Z,38.42
2022-09-07T12:39:02.832Z,38.16
2022-09-07T12:44:07.356Z,37.80
2022-09-07T12:49:29.056Z,37.57
2022-09-07T12:54:38.818Z,37.34
2022-09-07T13:00:05.735Z,36.97
2022-09-07T13:05:35.534Z,36.25
2022-09-07T13:10:41.764Z,36.12
2022-09-07T13:15:50.273Z,36.20
2022-09-07T13:21:08.640Z,35.98
2022-09-07T13:26:52.910Z,35.75
2022-09-07T13:32:15.824Z,35.86
2022-09-07T13:37:23.227Z,35.59
2022-09-07T13:42:30.455Z,35.35
2022-09-07T13:47:57.488Z,35.19
2022-09-07T13:53:21.575Z,34.85
2022-09-07T13:58:34.173Z,34.86
2022-09-07T14:03:51.826Z,34.47
2022-09-07T14:08:57.631Z,34.46
2022-09-07T14:14:07.707Z,34.43
2022-09-07T14:19:34.024Z,34.52
2022-09-07T14:24:47.155Z,34.90
2022-09-07T14:29:50.610Z,35.08
2022-09-07T14:34:53.573Z,35.35
2022-09-07T14:39:57.568Z,35.60
2022-09-07T14:45:18.356Z,35.85
2022-09-07T14:50:25.345Z,36.08
2022-09-07T14:55:33.337Z,36.26
2022-09-07T15:00:36.424Z,36.51
2022-09-07T15:05:49.110Z,36.74
2022-09-07T15:16:33.043Z,37.28
2022-09-07T15:21:39.765Z,37.31
2022-09-07T15:27:03.360Z,37.50
2022-09-07T15:32:09.461Z,37.65
2022-09-07T15:47:59.710Z,38.09
2022-09-07T15:53:03.144Z,38.24
2022-09-07T15:58:11.894Z,38.37
2022-09-07T16:03:15.108Z,38.41
2022-09-07T16:08:26.148Z,38.52
2022-09-07T16:13:31.395Z,38.67
2022-09-07T16:18:34.972Z,38.70
2022-09-07T16:23:40.796Z,38.86
2022-09-07T16:28:46.061Z,38.93
2022-09-07T16:33:49.098Z,39.14
2022-09-07T16:38:59.982Z,39.26
2022-09-07T16:44:03.512Z,39.49
2022-09-07T16:49:07.653Z,39.66
2022-09-07T16:54:13.473Z,39.71
2022-09-07T16:59:20.457Z,39.70
2022-09-07T17:04:23.915Z,39.81
2022-09-07T17:09:29.364Z,39.81
2022-09-07T17:14:32.820Z,39.98
2022-09-07T17:19:35.929Z,40.08
2022-09-07T17:24:39.222Z,40.25
2022-09-07T17:29:42.875Z,40.45
2022-09-07T17:34:45.986Z,40.90
2022-09-07T17:39:49.458Z,41.08
2022-09-07T17:44:53.022Z,41.26
2022-09-07T17:49:56.193Z,41.62
2022-09-07T17:55:01.409Z,41.74
2022-09-07T18:00:11.205Z,41.90
2022-09-07T18:05:16.703Z,42.17
2022-09-07T18:10:20.479Z,42.42
2022-09-07T18:15:23.362Z,42.76
2022-09-07T18:20:26.722Z,43.09
2022-09-07T18:25:30.060Z,43.16
2022-09-07T18:30:36.486Z,43.36
2022-09-07T18:35:54.203Z,43.49
2022-09-07T18:41:14.130Z,43.72
2022-09-07T18:46:23.251Z,43.93
2022-09-07T18:51:26.733Z,44.03
2022-09-07T18:56:29.979Z,44.16
2022-09-07T19:01:33.029Z,44.31
2022-09-07T19:06:35.922Z,44.59
2022-09-07T19:11:41.129Z,44.70
2022-09-07T19:16:45.155Z,44.68
2022-09-07T19:21:48.823Z,44.71
2022-09-07T19:26:51.675Z,44.47
2022-09-07T19:32:07.991Z,44.64
2022-09-07T19:37:12.946Z,44.55
2022-09-07T19:42:15.830Z,44.51
2022-09-07T19:47:19.139Z,44.50
2022-09-07T19:52:22.116Z,44.50
2022-09-07T19:57:24.954Z,44.33
2022-09-07T20:02:27.810Z,44.32
2022-09-07T20:07:30.630Z,44.26
2022-09-07T20:12:33.517Z,44.34
2022-09-07T20:17:37.990Z,44.33
2022-09-07T20:22:41.329Z,44.19
2022-09-07T20:27:44.165Z,44.19
2022-09-07T20:32:47.232Z,44.04
2022-09-07T20:37:50.314Z,44.03
2022-09-07T20:42:53.639Z,44.02
2022-09-07T20:47:56.508Z,43.93
2022-09-07T20:52:59.415Z,43.71
2022-09-07T20:58:03.101Z,43.72
2022-09-07T21:03:06.003Z,43.60
2022-09-07T21:08:09.043Z,43.50
2022-09-07T21:13:12.245Z,43.50
2022-09-07T21:18:17.865Z,43.26
2022-09-07T21:23:21.106Z,43.05
2022-09-07T21:28:25.895Z,43.07
2022-09-07T21:33:30.800Z,43.07
2022-09-07T21:38:35.414Z,43.17
2022-09-07T21:43:39.849Z,43.10
2022-09-07T21:48:43.438Z,43.26
2022-09-07T21:53:51.631Z,43.15
2022-09-07T21:58:55.585Z,43.18
2022-09-07T22:04:03.471Z,43.26
2022-09-07T22:09:06.515Z,43.57
2022-09-07T22:14:11.915Z,43.49
2022-09-07T22:19:14.782Z,43.53
2022-09-07T22:24:17.894Z,43.68
2022-09-07T22:29:20.770Z,43.70
2022-09-07T22:34:23.745Z,43.73
2022-09-07T22:39:26.625Z,44.09
2022-09-07T22:44:30.137Z,44.13
2022-09-07T22:49:33.298Z,44.38
2022-09-07T22:54:36.096Z,44.52
2022-09-07T22:59:38.940Z,44.49
2022-09-07T23:04:41.925Z,44.74
2022-09-07T23:09:44.904Z,44.92
2022-09-07T23:14:47.783Z,45.03
2022-09-07T23:19:50.658Z,45.39
2022-09-07T23:24:53.565Z,45.48
2022-09-07T23:29:56.353Z,45.65
2022-09-07T23:34:59.518Z,45.89
2022-09-07T23:40:02.685Z,46.06
2022-09-07T23:45:08.326Z,46.00
2022-09-07T23:50:11.292Z,46.30
2022-09-07T23:55:14.210Z,46.47
